createdAt,value
2019-02-23T00:01:29.095Z,53.60
2019-02-23T00:03:56.852Z,53.70
2019-02-23T00:06:29.806Z,54.90
2019-02-23T00:08:55.984Z,55.00
2019-02-23T00:11:25.604Z,55.10
2019-02-23T00:13:53.332Z,54.90
2019-02-23T00:16:21.049Z,54.50
2019-02-23T00:18:50.602Z,54.80
2019-02-23T00:21:18.597Z,55.00
2019-02-23T00:23:46.287Z,54.80
2019-02-23T00:26:13.992Z,54.90
2019-02-23T00:28:43.757Z,54.80
2019-02-23T00:31:11.445Z,54.80
2019-02-23T00:33:39.100Z,54.60
2019-02-23T00:36:06.805Z,54.40
2019-02-23T00:38:34.442Z,54.70
2019-02-23T00:41:04.122Z,54.70
2019-02-23T00:43:31.742Z,54.60
2019-02-23T00:45:59.427Z,54.70
2019-02-23T00:48:27.105Z,54.60
2019-02-23T00:50:56.661Z,54.60
2019-02-23T00:53:24.338Z,54.80
2019-02-23T00:55:51.985Z,54.70
2019-02-23T00:58:19.857Z,54.20
2019-02-23T01:00:49.427Z,54.10
2019-02-23T01:03:17.149Z,54.10
2019-02-23T01:05:44.840Z,54.00
2019-02-23T01:08:12.545Z,54.20
2019-02-23T01:10:42.109Z,54.10
2019-02-23T01:13:09.873Z,53.70
2019-02-23T01:15:37.654Z,53.60
2019-02-23T01:18:05.325Z,53.80
2019-02-23T01:20:33.048Z,53.70
2019-02-23T01:23:02.682Z,53.70
2019-02-23T01:25:30.309Z,53.90
2019-02-23T01:27:57.966Z,54.00
2019-02-23T01:30:25.685Z,53.80
2019-02-23T01:32:55.218Z,53.60
2019-02-23T01:35:23.034Z,53.50
2019-02-23T01:37:50.898Z,53.50
2019-02-23T01:40:18.553Z,53.50
2019-02-23T01:42:48.110Z,53.60
2019-02-23T01:45:16.021Z,53.60
2019-02-23T01:47:43.707Z,53.20
2019-02-23T01:50:11.381Z,53.20
2019-02-23T01:52:40.946Z,53.30
2019-02-23T01:55:08.700Z,53.50
2019-02-23T01:57:36.383Z,53.10
2019-02-23T02:00:06.623Z,52.90
2019-02-23T02:02:34.636Z,52.80
2019-02-23T02:05:03.218Z,52.80
2019-02-23T02:07:31.955Z,52.90
2019-02-23T02:10:01.509Z,52.80
2019-02-23T02:12:31.193Z,53.10
2019-02-23T02:15:00.825Z,53.10
2019-02-23T02:17:28.485Z,53.10
2019-02-23T02:19:56.197Z,53.50
2019-02-23T02:22:23.982Z,53.30
2019-02-23T02:24:53.603Z,53.60
2019-02-23T02:27:21.304Z,53.20
2019-02-23T02:29:48.979Z,53.10
2019-02-23T02:32:16.754Z,53.20
2019-02-23T02:34:46.292Z,53.30
2019-02-23T02:37:14.088Z,53.50
2019-02-23T02:39:41.771Z,53.50
2019-02-23T02:42:09.447Z,53.40
2019-02-23T02:44:37.085Z,53.40
2019-02-23T02:47:06.677Z,53.30
2019-02-23T02:49:34.336Z,53.30
2019-02-23T02:52:02.293Z,53.10
2019-02-23T02:54:29.923Z,53.30
2019-02-23T02:56:59.523Z,53.50
2019-02-23T02:59:27.146Z,53.30
2019-02-23T03:01:54.814Z,53.00
2019-02-23T03:04:22.474Z,53.00
2019-02-23T03:06:52.055Z,52.90
2019-02-23T03:09:19.679Z,53.00
2019-02-23T03:11:47.365Z,52.90
2019-02-23T03:14:15.020Z,52.90
2019-02-23T03:16:44.605Z,52.80
2019-02-23T03:19:12.292Z,54.00
2019-02-23T03:21:39.969Z,52.60
2019-02-23T03:24:07.620Z,52.60
2019-02-23T03:26:36.432Z,52.40
2019-02-23T03:29:05.973Z,52.40
2019-02-23T03:31:33.609Z,52.40
2019-02-23T03:34:01.412Z,52.40
2019-02-23T03:36:29.052Z,52.50
2019-02-23T03:38:58.600Z,52.80
2019-02-23T03:41:26.306Z,52.70
2019-02-23T03:43:53.987Z,52.70
2019-02-23T03:46:21.640Z,53.10
2019-02-23T03:48:51.476Z,53.10
2019-02-23T03:51:19.108Z,52.90
2019-02-23T03:53:46.770Z,53.50
2019-02-23T03:56:14.677Z,52.70
2019-02-23T03:58:44.245Z,53.00
2019-02-23T04:01:12.028Z,52.80
2019-02-23T04:03:39.708Z,52.60
2019-02-23T04:06:07.630Z,52.70
2019-02-23T04:08:35.267Z,52.70
2019-02-23T04:11:04.908Z,52.60
2019-02-23T04:13:32.574Z,52.60
2019-02-23T04:16:00.227Z,52.90
2019-02-23T04:18:28.596Z,53.20
2019-02-23T04:21:01.833Z,52.90
2019-02-23T04:23:28.018Z,53.20
2019-02-23T04:25:55.775Z,53.20
2019-02-23T04:28:23.556Z,53.00
2019-02-23T04:30:53.178Z,52.90
2019-02-23T04:33:20.852Z,53.30
2019-02-23T04:35:48.500Z,52.70
2019-02-23T04:38:16.191Z,52.90
2019-02-23T04:40:45.791Z,53.10
2019-02-23T04:43:14.518Z,53.50
2019-02-23T04:45:42.188Z,53.70
2019-02-23T04:48:09.829Z,53.70
2019-02-23T04:50:37.561Z,53.70
2019-02-23T04:53:07.137Z,53.60
2019-02-23T04:55:34.770Z,53.20
2019-02-23T04:58:02.603Z,53.40
2019-02-23T05:00:30.309Z,53.20
2019-02-23T05:02:57.989Z,53.40
2019-02-23T05:05:29.134Z,53.80
2019-02-23T05:07:56.825Z,54.00
2019-02-23T05:10:24.470Z,54.00
2019-02-23T05:12:54.086Z,53.80
2019-02-23T05:15:21.726Z,53.90
2019-02-23T05:17:49.635Z,53.80
2019-02-23T05:20:17.324Z,53.70
2019-02-23T05:22:48.946Z,53.30
2019-02-23T05:25:16.624Z,53.50
2019-02-23T05:27:44.284Z,53.50
2019-02-23T05:30:12.100Z,53.70
2019-02-23T05:32:41.657Z,53.40
2019-02-23T05:35:11.233Z,53.70
2019-02-23T05:37:40.797Z,53.60
2019-02-23T05:40:09.009Z,53.50
2019-02-23T05:42:36.668Z,53.80
2019-02-23T05:45:06.357Z,54.30
2019-02-23T05:47:34.166Z,54.70
2019-02-23T05:50:01.842Z,54.40
2019-02-23T05:52:29.567Z,54.50
2019-02-23T05:54:59.189Z,54.60
2019-02-23T05:57:26.873Z,54.60
2019-02-23T05:59:54.516Z,54.40
2019-02-23T06:02:22.140Z,54.50
2019-02-23T06:04:51.700Z,54.50
2019-02-23T06:07:19.344Z,54.10
2019-02-23T06:09:47.006Z,53.80
2019-02-23T06:12:14.650Z,54.50
2019-02-23T06:14:44.263Z,54.40
2019-02-23T06:17:11.962Z,54.50
2019-02-23T06:19:40.821Z,54.40
2019-02-23T06:22:08.753Z,54.20
2019-02-23T06:24:36.410Z,54.20
2019-02-23T06:27:06.014Z,54.40
2019-02-23T06:29:34.701Z,54.20
2019-02-23T06:32:02.370Z,54.50
2019-02-23T06:34:31.096Z,54.50
2019-02-23T06:37:00.722Z,54.20
2019-02-23T06:39:28.374Z,54.60
2019-02-23T06:41:56.075Z,54.70
2019-02-23T06:44:23.777Z,54.20
2019-02-23T06:46:53.384Z,55.00
2019-02-23T06:49:21.051Z,54.20
2019-02-23T06:51:48.825Z,54.20
2019-02-23T06:54:16.533Z,54.50
2019-02-23T06:56:46.209Z,54.20
2019-02-23T06:59:14.089Z,54.20
2019-02-23T07:01:43.649Z,54.20
2019-02-23T07:04:11.262Z,54.20
2019-02-23T07:06:40.818Z,54.20
2019-02-23T07:09:08.446Z,54.20
2019-02-23T07:11:36.205Z,54.90
2019-02-23T07:14:03.847Z,54.30
2019-02-23T07:16:31.501Z,54.30
2019-02-23T07:19:01.221Z,54.40
2019-02-23T07:21:28.969Z,54.20
2019-02-23T07:23:59.631Z,54.40
2019-02-23T07:26:27.265Z,53.60
2019-02-23T07:28:56.853Z,54.00
2019-02-23T07:31:24.650Z,53.80
2019-02-23T07:33:52.341Z,53.30
2019-02-23T07:36:19.993Z,53.50
2019-02-23T07:38:49.594Z,53.50
2019-02-23T07:41:17.313Z,53.40
2019-02-23T07:43:45.081Z,52.80
2019-02-23T07:46:12.728Z,52.50
2019-02-23T07:48:42.342Z,52.30
2019-02-23T07:51:10.056Z,53.20
2019-02-23T07:53:37.721Z,52.20
2019-02-23T07:56:05.333Z,51.90
2019-02-23T07:58:33.144Z,52.20
2019-02-23T08:01:02.754Z,52.20
2019-02-23T08:03:33.368Z,52.30
2019-02-23T08:06:01.367Z,52.50
2019-02-23T08:08:29.018Z,52.30
2019-02-23T08:10:58.634Z,52.00
2019-02-23T08:13:26.382Z,52.30
2019-02-23T08:15:55.335Z,52.40
2019-02-23T08:18:23.008Z,51.10
2019-02-23T08:20:52.553Z,51.60
2019-02-23T08:23:20.360Z,50.80
2019-02-23T08:25:48.116Z,50.10
2019-02-23T08:28:16.781Z,49.20
2019-02-23T08:30:47.073Z,49.70
2019-02-23T08:33:15.656Z,48.20
2019-02-23T08:35:43.345Z,48.10
2019-02-23T08:38:11.001Z,47.20
2019-02-23T08:40:38.684Z,47.60
2019-02-23T08:43:08.390Z,46.40
2019-02-23T08:45:36.150Z,45.40
2019-02-23T08:48:03.818Z,45.60
2019-02-23T08:50:33.384Z,45.60
2019-02-23T08:53:03.005Z,44.70
2019-02-23T08:55:30.789Z,43.50
2019-02-23T08:57:59.309Z,43.30
2019-02-23T09:00:27.125Z,43.40
2019-02-23T09:02:56.706Z,42.70
2019-02-23T09:05:24.416Z,42.40
2019-02-23T09:07:52.073Z,42.70
2019-02-23T09:10:19.744Z,42.70
2019-02-23T09:12:49.481Z,45.30
2019-02-23T09:15:17.199Z,45.00
2019-02-23T09:17:46.846Z,42.70
2019-02-23T09:20:14.642Z,42.20
2019-02-23T09:22:44.277Z,41.70
2019-02-23T09:25:14.079Z,43.10
2019-02-23T09:27:41.859Z,42.10
2019-02-23T09:30:10.158Z,41.80
2019-02-23T09:32:37.802Z,41.20
2019-02-23T09:35:07.419Z,41.40
2019-02-23T09:37:35.173Z,42.10
2019-02-23T09:40:03.497Z,41.30
2019-02-23T09:42:31.114Z,41.60
2019-02-23T09:45:00.710Z,41.70
2019-02-23T09:47:28.398Z,41.50
2019-02-23T09:49:56.072Z,42.30
2019-02-23T09:52:23.724Z,41.20
2019-02-23T09:54:54.526Z,41.60
2019-02-23T09:57:22.237Z,42.20
2019-02-23T09:59:49.890Z,41.10
2019-02-23T10:02:17.630Z,40.30
2019-02-23T10:04:47.220Z,40.30
2019-02-23T10:07:16.120Z,39.80
2019-02-23T10:09:43.830Z,39.70
2019-02-23T10:12:11.486Z,41.10
2019-02-23T10:14:39.141Z,41.10
2019-02-23T10:17:09.383Z,40.10
2019-02-23T10:19:38.273Z,39.30
2019-02-23T10:22:06.076Z,40.00
2019-02-23T10:24:33.746Z,40.00
2019-02-23T10:27:03.313Z,40.00
2019-02-23T10:29:31.454Z,40.40
2019-02-23T10:31:59.089Z,39.10
2019-02-23T10:34:26.768Z,39.60
2019-02-23T10:36:56.368Z,39.40
2019-02-23T10:39:24.141Z,38.50
2019-02-23T10:41:51.845Z,39.90
2019-02-23T10:44:19.591Z,38.90
2019-02-23T10:46:49.138Z,38.90
2019-02-23T10:49:16.871Z,37.50
2019-02-23T10:51:44.555Z,36.70
2019-02-23T10:54:14.277Z,37.90
2019-02-23T10:56:43.891Z,37.60
2019-02-23T10:59:11.538Z,36.70
2019-02-23T11:01:39.732Z,37.90
2019-02-23T11:04:07.373Z,37.90
2019-02-23T11:06:35.093Z,37.10
2019-02-23T11:09:07.030Z,36.70
2019-02-23T11:11:36.713Z,36.50
2019-02-23T11:14:04.485Z,35.90
2019-02-23T11:16:32.117Z,34.70
2019-02-23T11:19:01.770Z,35.70
2019-02-23T11:21:29.479Z,35.80
2019-02-23T11:23:57.265Z,35.80
2019-02-23T11:26:25.022Z,36.00
2019-02-23T11:28:54.587Z,35.10
2019-02-23T11:31:22.416Z,33.90
2019-02-23T11:33:50.182Z,35.40
2019-02-23T11:36:17.926Z,34.60
2019-02-23T11:38:47.513Z,34.50
2019-02-23T11:41:17.287Z,33.90
2019-02-23T11:43:44.972Z,33.50
2019-02-23T11:46:12.807Z,32.90
2019-02-23T11:48:43.482Z,32.20
2019-02-23T11:51:13.305Z,33.10
2019-02-23T11:53:41.009Z,32.80
2019-02-23T11:56:08.810Z,33.00
2019-02-23T11:58:36.642Z,32.40
2019-02-23T12:01:06.277Z,32.00
2019-02-23T12:03:33.922Z,31.50
2019-02-23T12:06:02.033Z,32.40
2019-02-23T12:08:29.729Z,31.00
2019-02-23T12:10:59.318Z,31.50
2019-02-23T12:13:27.013Z,31.30
2019-02-23T12:15:54.743Z,30.50
2019-02-23T12:18:22.377Z,30.90
2019-02-23T12:20:51.974Z,29.90
2019-02-23T12:23:19.774Z,29.80
2019-02-23T12:25:47.559Z,29.50
2019-02-23T12:28:15.332Z,29.70
2019-02-23T12:30:45.193Z,29.00
2019-02-23T12:33:14.984Z,28.90
2019-02-23T12:35:43.779Z,28.20
2019-02-23T12:38:13.551Z,27.40
2019-02-23T12:40:43.137Z,27.50
2019-02-23T12:43:12.869Z,27.20
2019-02-23T12:45:43.737Z,26.80
2019-02-23T12:48:11.454Z,26.90
2019-02-23T12:50:39.114Z,27.50
2019-02-23T12:53:08.718Z,27.40
2019-02-23T12:55:38.357Z,28.10
2019-02-23T12:58:06.109Z,27.00
2019-02-23T13:00:33.817Z,27.30
2019-02-23T13:03:03.733Z,27.20
2019-02-23T13:05:31.397Z,26.40
2019-02-23T13:07:59.057Z,27.10
2019-02-23T13:10:27.033Z,25.00
2019-02-23T13:13:13.042Z,25.10
2019-02-23T13:16:17.709Z,26.40
2019-02-23T13:19:32.506Z,25.70
2019-02-23T13:22:29.937Z,26.70
2019-02-23T13:25:21.341Z,24.90
2019-02-23T13:28:31.560Z,24.90
2019-02-23T13:31:34.097Z,24.90
2019-02-23T13:34:52.378Z,24.90
2019-02-23T13:37:48.776Z,24.40
2019-02-23T13:41:00.769Z,24.50
2019-02-23T13:44:00.721Z,23.60
2019-02-23T13:47:00.344Z,23.00
2019-02-23T13:49:56.887Z,22.30
2019-02-23T13:53:12.404Z,23.20
2019-02-23T13:56:11.101Z,22.50
2019-02-23T13:59:12.833Z,22.60
2019-02-23T14:02:04.115Z,23.00
2019-02-23T14:05:12.825Z,22.50
2019-02-23T14:08:17.514Z,22.50
2019-02-23T14:11:08.465Z,21.50
2019-02-23T14:14:08.889Z,21.90
2019-02-23T14:17:12.998Z,21.40
2019-02-23T14:20:28.313Z,22.30
2019-02-23T14:23:08.176Z,21.70
2019-02-23T14:26:23.849Z,21.70
2019-02-23T14:29:24.957Z,21.20
2019-02-23T14:32:16.710Z,21.50
2019-02-23T14:35:27.157Z,21.00
2019-02-23T14:38:31.972Z,20.30
2019-02-23T14:41:11.925Z,20.80
2019-02-23T14:44:16.733Z,21.00
2019-02-23T14:47:04.874Z,20.40
2019-02-23T14:50:19.449Z,20.60
2019-02-23T14:53:26.614Z,21.50
2019-02-23T14:56:45.074Z,20.60
2019-02-23T14:59:40.641Z,20.50
2019-02-23T15:03:08.223Z,20.20
2019-02-23T15:06:08.559Z,21.10
2019-02-23T15:09:17.272Z,20.10
2019-02-23T15:12:13.375Z,19.90
2019-02-23T15:15:23.469Z,20.50
2019-02-23T15:18:12.665Z,20.10
2019-02-23T15:21:00.129Z,20.40
2019-02-23T15:24:15.626Z,20.00
2019-02-23T15:27:43.053Z,20.60
2019-02-23T15:30:19.017Z,20.80
2019-02-23T15:33:33.917Z,19.00
2019-02-23T15:36:26.160Z,20.30
2019-02-23T15:39:49.292Z,19.50
2019-02-23T15:42:54.344Z,20.20
2019-02-23T15:46:00.684Z,20.00
2019-02-23T15:49:06.958Z,19.40
2019-02-23T15:51:34.781Z,19.60
2019-02-23T15:54:02.645Z,19.30
2019-02-23T15:56:30.368Z,20.90
2019-02-23T15:58:58.099Z,19.80
2019-02-23T16:01:25.833Z,19.20
2019-02-23T16:03:53.509Z,19.10
2019-02-23T16:06:23.124Z,19.70
2019-02-23T16:08:52.657Z,20.20
2019-02-23T16:11:20.442Z,20.30
2019-02-23T16:13:51.105Z,19.60
2019-02-23T16:16:20.842Z,19.50
2019-02-23T16:18:50.484Z,19.60
2019-02-23T16:21:19.342Z,19.50
2019-02-23T16:23:47.028Z,18.80
2019-02-23T16:26:14.810Z,19.30
2019-02-23T16:28:42.525Z,19.50
2019-02-23T16:31:12.171Z,18.40
2019-02-23T16:33:39.911Z,19.50
2019-02-23T16:36:07.636Z,19.10
2019-02-23T16:38:35.316Z,18.60
2019-02-23T16:41:05.125Z,19.80
2019-02-23T16:43:32.910Z,19.30
2019-02-23T16:46:03.137Z,19.20
2019-02-23T16:48:30.963Z,19.30
2019-02-23T16:51:04.207Z,19.90
2019-02-23T16:53:31.927Z,19.30
2019-02-23T16:55:59.677Z,20.20
2019-02-23T16:58:27.373Z,19.20
2019-02-23T17:00:57.121Z,19.60
2019-02-23T17:03:26.019Z,19.50
2019-02-23T17:05:53.708Z,19.20
2019-02-23T17:08:21.517Z,19.30
2019-02-23T17:10:53.781Z,19.90
2019-02-23T17:13:21.496Z,19.70
2019-02-23T17:15:49.196Z,19.70
2019-02-23T17:18:18.017Z,19.60
2019-02-23T17:20:47.799Z,20.40
2019-02-23T17:23:17.476Z,19.30
2019-02-23T17:25:45.162Z,19.50
2019-02-23T17:28:12.868Z,19.50
2019-02-23T17:30:42.509Z,20.20
2019-02-23T17:33:12.166Z,20.10
2019-02-23T17:35:39.824Z,20.10
2019-02-23T17:38:16.262Z,19.90
2019-02-23T17:40:40.944Z,19.80
2019-02-23T17:43:10.598Z,19.60
2019-02-23T17:45:38.365Z,19.90
2019-02-23T17:48:08.054Z,20.30
2019-02-23T17:50:35.897Z,19.80
2019-02-23T17:53:05.476Z,20.20
2019-02-23T17:55:33.161Z,19.90
2019-02-23T17:58:00.861Z,20.20
2019-02-23T18:00:28.512Z,20.50
2019-02-23T18:02:58.420Z,19.70
2019-02-23T18:05:26.280Z,19.10
2019-02-23T18:07:53.938Z,18.50
2019-02-23T18:10:21.761Z,18.90
2019-02-23T18:12:51.358Z,18.30
2019-02-23T18:15:19.500Z,18.80
2019-02-23T18:17:47.367Z,19.10
2019-02-23T18:20:16.989Z,19.20
2019-02-23T18:22:44.795Z,19.80
2019-02-23T18:25:15.486Z,19.50
2019-02-23T18:27:43.225Z,20.10
2019-02-23T18:30:14.048Z,20.10
2019-02-23T18:32:42.032Z,20.30
2019-02-23T18:35:11.763Z,20.60
2019-02-23T18:37:41.410Z,21.40
2019-02-23T18:40:09.347Z,21.20
2019-02-23T18:42:37.485Z,22.00
2019-02-23T18:45:07.245Z,21.40
2019-02-23T18:47:35.161Z,21.80
2019-02-23T18:50:03.165Z,21.90
2019-02-23T18:52:31.099Z,21.90
2019-02-23T18:55:03.628Z,21.60
2019-02-23T18:57:34.916Z,21.90
2019-02-23T19:00:03.594Z,21.80
2019-02-23T19:02:31.841Z,21.70
2019-02-23T19:05:01.560Z,21.90
2019-02-23T19:07:29.545Z,21.80
2019-02-23T19:09:57.329Z,21.90
2019-02-23T19:12:25.464Z,21.90
2019-02-23T19:14:56.372Z,21.80
2019-02-23T19:17:24.087Z,21.80
2019-02-23T19:19:51.766Z,21.80
2019-02-23T19:22:19.599Z,21.80
2019-02-23T19:24:50.293Z,21.70
2019-02-23T19:27:18.993Z,22.10
2019-02-23T19:29:46.787Z,21.60
2019-02-23T19:32:14.672Z,21.60
2019-02-23T19:34:42.434Z,21.60
2019-02-23T19:37:10.269Z,21.60
2019-02-23T19:39:38.106Z,21.60
2019-02-23T19:42:05.985Z,21.80
2019-02-23T19:44:33.760Z,22.30
2019-02-23T19:47:13.281Z,22.30
2019-02-23T19:49:42.296Z,22.30
2019-02-23T19:52:09.978Z,22.30
2019-02-23T19:54:37.750Z,22.30
2019-02-23T19:57:07.466Z,22.30
2019-02-23T19:59:35.321Z,22.70
2019-02-23T20:02:03.189Z,22.10
2019-02-23T20:04:31.182Z,22.20
2019-02-23T20:07:00.873Z,22.60
2019-02-23T20:09:28.648Z,22.30
2019-02-23T20:11:56.442Z,22.10
2019-02-23T20:14:24.166Z,22.10
2019-02-23T20:16:53.745Z,22.40
2019-02-23T20:19:21.812Z,22.00
2019-02-23T20:21:49.547Z,22.00
2019-02-23T20:24:17.288Z,22.00
2019-02-23T20:26:45.065Z,22.50
2019-02-23T20:29:13.009Z,23.10
2019-02-23T20:31:41.851Z,23.20
2019-02-23T20:34:09.577Z,21.90
2019-02-23T20:36:37.340Z,23.30
2019-02-23T20:39:07.228Z,23.30
2019-02-23T20:41:36.918Z,22.90
2019-02-23T20:44:04.669Z,23.20
2019-02-23T20:46:32.363Z,22.90
2019-02-23T20:49:00.191Z,24.30
2019-02-23T20:51:28.048Z,23.40
2019-02-23T20:53:55.794Z,23.70
2019-02-23T20:56:23.701Z,23.40
2019-02-23T20:58:53.282Z,23.40
2019-02-23T21:01:22.860Z,23.50
2019-02-23T21:03:50.918Z,22.60
2019-02-23T21:06:18.636Z,23.40
2019-02-23T21:08:48.420Z,23.10
2019-02-23T21:11:18.119Z,23.20
2019-02-23T21:13:45.813Z,23.20
2019-02-23T21:16:15.252Z,23.70
2019-02-23T21:18:43.030Z,22.80
2019-02-23T21:21:12.596Z,22.60
2019-02-23T21:23:40.326Z,23.30
2019-02-23T21:26:08.011Z,23.20
2019-02-23T21:28:37.597Z,23.30
2019-02-23T21:31:07.144Z,22.80
2019-02-23T21:33:34.985Z,22.30
2019-02-23T21:36:02.652Z,23.00
2019-02-23T21:38:30.409Z,22.50
2019-02-23T21:40:59.970Z,22.70
2019-02-23T21:43:29.243Z,22.90
2019-02-23T21:45:56.938Z,23.20
2019-02-23T21:48:24.664Z,23.20
2019-02-23T21:50:52.324Z,23.30
2019-02-23T21:53:22.905Z,23.30
2019-02-23T21:55:50.669Z,23.30
2019-02-23T21:58:18.538Z,23.10
2019-02-23T22:00:46.417Z,23.40
2019-02-23T22:03:16.109Z,23.40
2019-02-23T22:05:43.913Z,23.60
2019-02-23T22:08:11.569Z,23.60
2019-02-23T22:10:39.464Z,23.40
2019-02-23T22:13:09.213Z,23.80
2019-02-23T22:15:38.800Z,23.90
2019-02-23T22:18:08.431Z,24.20
2019-02-23T22:20:38.031Z,24.20
2019-02-23T22:23:07.836Z,24.50
2019-02-23T22:25:37.443Z,25.00
2019-02-23T22:28:07.045Z,24.70
2019-02-23T22:30:36.640Z,25.00
2019-02-23T22:33:06.171Z,25.00
2019-02-23T22:35:35.810Z,24.80
2019-02-23T22:38:05.393Z,25.00
2019-02-23T22:40:35.008Z,24.90
2019-02-23T22:43:04.547Z,25.20
2019-02-23T22:45:36.670Z,25.30
2019-02-23T22:48:06.309Z,24.80
2019-02-23T22:50:35.928Z,25.70
2019-02-23T22:53:05.609Z,25.60
2019-02-23T22:55:43.805Z,25.60
2019-02-23T22:58:13.338Z,25.50
2019-02-23T23:01:02.090Z,25.50
2019-02-23T23:03:33.579Z,25.60
2019-02-23T23:06:01.350Z,25.50
2019-02-23T23:08:29.096Z,25.20
2019-02-23T23:10:56.791Z,25.20
2019-02-23T23:13:24.581Z,25.40
2019-02-23T23:15:54.234Z,25.10
2019-02-23T23:18:22.125Z,25.40
2019-02-23T23:20:49.823Z,24.60
2019-02-23T23:23:17.529Z,24.70
2019-02-23T23:25:47.249Z,25.00
2019-02-23T23:28:15.006Z,25.10
2019-02-23T23:30:42.733Z,25.30
2019-02-23T23:33:10.454Z,24.90
2019-02-23T23:35:40.088Z,24.80
2019-02-23T23:38:07.845Z,25.20
2019-02-23T23:40:35.521Z,25.20
2019-02-23T23:43:03.155Z,24.90
2019-02-23T23:45:32.846Z,24.60
2019-02-23T23:48:02.434Z,25.00
2019-02-23T23:50:30.185Z,24.60
2019-02-23T23:52:57.918Z,24.50
2019-02-23T23:55:26.051Z,24.60
2019-02-23T23:57:58.406Z,24.40
